Royal Clipper — 9HA2796 — position and weather

sailwx.info

Track history (hours):
 
Tides and Currents Weather Stations Pressure Air Temp Water Temp Dewpoint Dewpoint Depression Visibility Wind Speed Wind Dir Waves Ship Positions

Royal Clipper

Last reported at 2017-Jun-26 11:59 UTC. Time now 2017-Jun-26 12:01 UTC.
Position N 45°05' E 013°38'.

Length 137 m; draft 6.2 m.

Type: Ship. MMSI: 215813000.

Date/timePositionNaut miles runAvg speedWind from/ knotsBaromVisibWave heightAir tempDewpointWater temp
2017-Jun-26 11:59N 45°05' E 013°38'0 0.0
2017-Jun-26 11:28N 45°05' E 013°38'0 0.0
2017-Jun-26 10:55N 45°05' E 013°38'0 0.0
2017-Jun-26 10:28N 45°05' E 013°38'0 0.0
2017-Jun-26 09:58N 45°05' E 013°38'0 0.6
2017-Jun-26 09:30N 45°05' E 013°37'4 7.2
2017-Jun-26 09:00N 45°02' E 013°36'510.0
2017-Jun-26 08:30N 44°57' E 013°38'510.1
2017-Jun-26 08:00N 44°52' E 013°40'510.6
2017-Jun-26 07:30N 44°47' E 013°42'510.4
2017-Jun-26 07:00N 44°42' E 013°46'611.4
2017-Jun-26 06:30N 44°39' E 013°52'611.6
2017-Jun-26 06:00N 44°35' E 013°58'611.3
2017-Jun-26 05:30N 44°31' E 014°04'611.3
2017-Jun-26 05:00N 44°27' E 014°10'112 9.1
2017-Jun-25 16:39N 43°16' E 016°10'13 1.5
2017-Jun-25 08:11N 43°10' E 016°26'2 2.2
2017-Jun-25 07:17N 43°08' E 016°27'3 7.2
2017-Jun-25 06:55N 43°06' E 016°28'6 6.5
2017-Jun-25 06:03N 43°01' E 016°31'0 7.8
2017-Jun-25 06:00N 43°00' E 016°31'  
2017-Jun-22 21:03N 40°23' E 019°04'217 4.8
2017-Jun-20 23:53N 37°51' E 015°44'812.3
2017-Jun-20 23:12N 37°51' E 015°33'312.7
2017-Jun-20 22:57N 37°50' E 015°30'7 0.6
2017-Jun-20 10:26N 37°56' E 015°25'5 8.7
2017-Jun-20 09:52N 38°00' E 015°29'4 8.5
2017-Jun-20 09:25N 38°04' E 015°31'3 8.1
2017-Jun-20 08:59N 38°07' E 015°33'510.0
2017-Jun-20 08:30N 38°11' E 015°35'711.2
2017-Jun-20 07:51N 38°18' E 015°39'411.4
2017-Jun-20 07:30N 38°21' E 015°36'611.1
2017-Jun-20 07:00N 38°26' E 015°32'1111.0
2017-Jun-20 05:59N 38°35' E 015°23'10611.7
2017-Jun-19 20:58N 40°11' E 014°28'14 8.5
2017-Jun-19 19:22N 40°24' E 014°22'2 4.5
2017-Jun-19 19:00N 40°26' E 014°21'  
2017-Jun-16 12:01N 40°18' E 013°37'0 2.7
2017-Jun-16 12:01N 40°18' E 013°37'  
Track history (hours):
 
Tides and Currents Weather Stations Pressure Air Temp Water Temp Dewpoint Dewpoint Depression Visibility Wind Speed Wind Dir Waves Ship Positions

Royal Clipper

Last reported at 2017-Jun-26 11:59 UTC. Time now 2017-Jun-26 12:01 UTC.
Position N 45°05' E 013°38'.

Length 137 m; draft 6.2 m.

Type: Ship. MMSI: 215813000.

Date/timePositionNaut miles runAvg speedWind from/ knotsBaromVisibWave heightAir tempDewpointWater temp
2017-Jun-26 11:59N 45°05' E 013°38'0 0.0
2017-Jun-26 11:28N 45°05' E 013°38'0 0.0
2017-Jun-26 10:55N 45°05' E 013°38'0 0.0
2017-Jun-26 10:28N 45°05' E 013°38'0 0.0
2017-Jun-26 09:58N 45°05' E 013°38'0 0.6
2017-Jun-26 09:30N 45°05' E 013°37'4 7.2
2017-Jun-26 09:00N 45°02' E 013°36'510.0
2017-Jun-26 08:30N 44°57' E 013°38'510.1
2017-Jun-26 08:00N 44°52' E 013°40'510.6
2017-Jun-26 07:30N 44°47' E 013°42'510.4
2017-Jun-26 07:00N 44°42' E 013°46'611.4
2017-Jun-26 06:30N 44°39' E 013°52'611.6
2017-Jun-26 06:00N 44°35' E 013°58'611.3
2017-Jun-26 05:30N 44°31' E 014°04'611.3
2017-Jun-26 05:00N 44°27' E 014°10'112 9.1
2017-Jun-25 16:39N 43°16' E 016°10'13 1.5
2017-Jun-25 08:11N 43°10' E 016°26'2 2.2
2017-Jun-25 07:17N 43°08' E 016°27'3 7.2
2017-Jun-25 06:55N 43°06' E 016°28'6 6.5
2017-Jun-25 06:03N 43°01' E 016°31'0 7.8
2017-Jun-25 06:00N 43°00' E 016°31'  
2017-Jun-22 21:03N 40°23' E 019°04'217 4.8
2017-Jun-20 23:53N 37°51' E 015°44'812.3
2017-Jun-20 23:12N 37°51' E 015°33'312.7
2017-Jun-20 22:57N 37°50' E 015°30'7 0.6
2017-Jun-20 10:26N 37°56' E 015°25'5 8.7
2017-Jun-20 09:52N 38°00' E 015°29'4 8.5
2017-Jun-20 09:25N 38°04' E 015°31'3 8.1
2017-Jun-20 08:59N 38°07' E 015°33'510.0
2017-Jun-20 08:30N 38°11' E 015°35'711.2
2017-Jun-20 07:51N 38°18' E 015°39'411.4
2017-Jun-20 07:30N 38°21' E 015°36'611.1
2017-Jun-20 07:00N 38°26' E 015°32'1111.0
2017-Jun-20 05:59N 38°35' E 015°23'10611.7
2017-Jun-19 20:58N 40°11' E 014°28'14 8.5
2017-Jun-19 19:22N 40°24' E 014°22'2 4.5
2017-Jun-19 19:00N 40°26' E 014°21'  
2017-Jun-16 12:01N 40°18' E 013°37'0 2.7
2017-Jun-16 12:01N 40°18' E 013°37'  

Dump ship's entire track history